Ocean City (26N)
Ocean City, NJ
Field Elevation: 8
Lat: 39°15.81N  Long: 74°36.45W
CTAF/Unicom Freq: 122.7000
   
     For Weather-by-Phone, call (609) 398-0705
Weather Advisories
2018-07-16   19:36 Z
Altimeter 29.97" Hg
Wind 170° @ 10 KT
Gusts 17 KT
Visibility 4 SM
Ceiling CLR
Temperature 26° C (79° F)
Dewpoint 23° C (73° F)
Relative Humidity 86%
Density Altitude 1,200 feet
Condensation Altitude 1,400 feet
Wind and Runways
Indicated Runway = 24
Headwind = 3 kt
Crosswind = 9 kt
History
 
 
 
More Info
All DigiWx sites map
Weather Radar
NOAA Forecast
 
Airport IQ 5010
(HMIEM) Shock Trauma Ctr
(PN44) Upper Gwynedd Heliport
 
about DigiWx
 
FAA Disclaimer: The data displayed is for advisory purposes only and is not to be used for flight planning or operations. For official data, please call (609) 398-0705 to hear the current automated AWOS voice message.
  METAR 26N 161936Z AUTO 17010G17KT VIS 4 SM CLR 26/23 A2997